Accueil
METAR-TAF:

METAR-TAF

Aéroports :

Vineyard Haven, Massachusetts, États-Unis

latitude: 41-23-32N, longitude: 070-37-00W, altitude: 20 m

Observation

Le bulletin a été fait il y a 56 minutes, à 04:53 UTC
Vent 11 kt de sud/sud-est
Température 21°C
Humidité 100%
Pression 1007 hPa
Visibilité: 4.8 km
Ciel couvert à une hauteur de 200 ft
brume

METAR: KMVY 300453Z AUTO 15011KT 3SM BR OVC002 21/21 A2975 RMK AO2 PRESFR SLP074 T02110211 402500194

Heure: 01:49 (05:49 UTC)


TAF: absent

Observations et prévisions météorologiques de plus de 4000 aéroports (messages METAR et TAF).

Les stations disponibles sont représentées par des disques jaunes et rouges sur la carte.

Passer la souris dessus pour voir le nom de la station.

Cliquer dessus pour voir les observations et prévisions météorologiques.

Pour changer de carte: cliquez sur les boutons verts avec une croix noire pour zoomer, sur le bouton vert avec un tiret pour effectuer un zoom arrière, ou sur les flèches vertes pour les cartes adjacentes.


METAR-TAF: